Terminal Aerodrome Forecast
Issued by NWS Tulsa, OK

Home | Current Version | Previous Version | Text Only | Print | Product List | Glossary On
Versions: 1 2 3 4 5 6 7 8 9 10 11 12 13 14 15 16 17 18 19 20 21 22 23 24
000
FTUS44 KTSA 240500
TAFFSM
TAF
KFSM 240525Z 2406/2506 28018G26KT P6SM OVC020
     FM241000 29012KT P6SM SCT020 BKN100
     FM241600 28015G25KT P6SM SKC
     FM250000 28005KT P6SM SKC=

USA.gov is the U.S. government's official web portal to all federal, state and local government web resources and services.